• Join FlightAware (Why Join?)
  • Login
  • US Flag 
01:40AM EDT


 

Airport Tracker/Info


-or-


 

Live Flight TrackerFlight Track Log ✈ UAL1177 ✈ 17-May-2013 ✈ KDEN - KPDX

Flight Track Log - Related Links

Times and Time Zones

All times are in EDT time to prevent confusion due to time zone crossing. See the UAL1177 flight status page for this flight to view local times or setup timezone preferences in your user account.

Time Position Orientation Groundspeed Altitude Reporting Facility
EDT Latitude Longitude Course Direction KTS MPH feet Rate Location/Type
09:17PM 39.8413 -104.7310 180° South 198 228 5,900  Level FlightAware ADS-B
09:17PM 39.8428 -104.7470 277° West 201 231 6,500 2,520 Climbing FlightAware ADS-B
09:17PM 39.8436 -104.7530 280° West 200 230 6,700 1,980 Climbing FlightAware ADS-B
09:17PM 39.8452 -104.7610 285° West 204 235 6,900 1,680 Climbing FlightAware ADS-B
09:17PM 39.8474 -104.7690 290° West 211 243 7,100 1,380 Climbing FlightAware ADS-B
09:17PM 39.8501 -104.7770 294° West 218 251 7,200 1,080 Climbing FlightAware ADS-B
09:17PM 39.8529 -104.7830 301° West 225 259 7,300 1,560 Climbing FlightAware ADS-B
09:17PM 39.8583 -104.7940 303° West 231 266 7,600 1,620 Climbing FlightAware ADS-B
09:18PM 39.8654 -104.8090 302° West 239 275 7,900 1,620 Climbing FlightAware ADS-B
09:18PM 39.8785 -104.8350 303° West 253 291 8,500 1,620 Climbing FlightAware ADS-B
09:18PM 39.8890 -104.8560 303° West 262 302 8,900 1,680 Climbing FlightAware ADS-B
09:19PM 39.9015 -104.8820 302° West 274 315 9,500 1,740 Climbing FlightAware ADS-B
09:19PM 39.9070 -104.8930 303° West 281 323 9,700 1,680 Climbing FlightAware ADS-B
09:19PM 39.9189 -104.9090 314° West 292 336 10,100 1,980 Climbing FlightAware ADS-B
09:19PM 39.9245 -104.9150 321° Northwest 295 339 10,300 2,640 Climbing FlightAware ADS-B
09:19PM 39.9479 -104.9340 328° Northwest 297 342 11,200 2,340 Climbing FlightAware ADS-B
09:20PM 39.9708 -104.9460 338° Northwest 312 359 11,800 1,920 Climbing FlightAware ADS-B
09:20PM 39.9853 -104.9470 357° North 318 366 12,100 2,220 Climbing FlightAware ADS-B
09:20PM 40.0304 -104.9450 North 323 372 13,300 1,800 Climbing FlightAware ADS-B
09:21PM 40.0773 -104.9430 North 350 403 13,900 1,200 Climbing FlightAware ADS-B
09:21PM 40.1282 -104.9420 North 374 430 14,500 1,740 Climbing FlightAware ADS-B
09:22PM 40.1829 -104.9400 North 382 440 15,700 1,980 Climbing FlightAware ADS-B
09:22PM 40.2340 -104.9390 North 392 451 16,600 1,860 Climbing FlightAware
09:22PM 40.2453 -104.9380 North 393 452 16,800 2,340 Climbing FlightAware ADS-B
09:23PM 40.2890 -104.9380 360° North 396 456 17,700 2,100 Climbing FlightAware ADS-B
09:23PM 40.3018 -104.9400 353° North 397 457 17,900 2,040 Climbing FlightAware ADS-B
09:23PM 40.3584 -104.9550 349° North 407 468 19,000 2,280 Climbing FlightAware ADS-B
09:24PM 40.4177 -104.9720 348° North 410 472 20,300 2,340 Climbing FlightAware ADS-B
09:25PM 40.4780 -104.9880 349° North 410 472 21,500 1,860 Climbing FlightAware ADS-B
09:25PM 40.5351 -105.0040 348° North 420 483 22,300 1,560 Climbing FlightAware ADS-B
09:26PM 40.5934 -105.0210 348° North 428 493 23,100 1,620 Climbing FlightAware ADS-B
09:26PM 40.6535 -105.0370 349° North 435 501 24,000 1,620 Climbing FlightAware ADS-B
09:27PM 40.7136 -105.0540 348° North 438 504 24,800 1,500 Climbing FlightAware ADS-B
09:27PM 40.7316 -105.0600 346° North 438 504 25,000 1,500 Climbing FlightAware ADS-B
09:27PM 40.7528 -105.0700 340° North 436 502 25,300 1,320 Climbing FlightAware ADS-B
09:27PM 40.7732 -105.0830 334° Northwest 435 501 25,500 1,140 Climbing FlightAware ADS-B
09:27PM 40.8054 -105.1140 324° Northwest 432 497 25,900 1,200 Climbing FlightAware ADS-B
09:28PM 40.8740 -105.1910 320° Northwest 440 506 26,900 1,200 Climbing FlightAware
09:29PM 40.9360 -105.2610 320° Northwest 446 513 27,700 1,200 Climbing FlightAware
09:30PM 40.9990 -105.3330 319° Northwest 453 521 28,500 1,080 Climbing FlightAware
09:30PM 41.0580 -105.4030 318° Northwest 450 518 29,200 1,080 Climbing FlightAware
09:31PM 41.1050 -105.5170 299° West 441 507 30,100 1,080 Climbing FlightAware
09:32PM 41.1420 -105.6270 294° West 443 510 30,900 900 Climbing FlightAware
09:32PM 41.1750 -105.7270 294° West 445 512 31,400 720 Climbing FlightAware
09:33PM 41.2070 -105.8230 294° West 448 516 31,900 900 Climbing FlightAware
09:34PM 41.2420 -105.9310 293° West 448 516 32,600 960 Climbing FlightAware
09:34PM 41.2770 -106.0400 293° West 448 516 33,300 720 Climbing FlightAware
09:35PM 41.3040 -106.1240 293° West 448 516 33,600 480 Climbing FlightAware
09:36PM 41.3380 -106.2300 293° West 446 513 34,000 960 Climbing FlightAware
09:36PM 41.3730 -106.3390 293° West 443 510 35,000 660 Climbing FlightAware
09:37PM 41.4070 -106.4460 293° West 443 510 35,000  Level FlightAware
09:38PM 41.4350 -106.5310 294° West 443 510 35,000  Level FlightAware
09:39PM 41.4620 -106.6170 293° West 443 510 35,000  Level FlightAware
09:39PM 41.4890 -106.7020 293° West 443 510 35,000  Level FlightAware
09:40PM 41.5160 -106.7880 293° West 443 510 35,000  Level FlightAware
09:41PM 41.5500 -106.8950 293° West 443 510 35,000  Level FlightAware
09:41PM 41.5780 -106.9810 294° West 443 510 35,000  Level FlightAware
09:42PM 41.6050 -107.0670 293° West 443 510 35,000  Level FlightAware
09:43PM 41.6320 -107.1520 293° West 443 510 35,000  Level FlightAware
09:43PM 41.6590 -107.2380 293° West 443 510 35,000  Level FlightAware
09:44PM 41.6930 -107.3460 293° West 443 510 35,000  Level FlightAware
09:45PM 41.7210 -107.4320 294° West 443 510 35,000  Level FlightAware
09:46PM 41.7480 -107.5180 293° West 443 510 35,000 720 Level FlightAware
09:46PM 41.8192 -107.7753 293° West 436 502 36,000 1,140 Climbing Salt Lake Center
09:46PM 41.8344 -107.8219 294° West 436 502 36,000  Level Denver Center
09:48PM 41.8764 -107.9656 291° West 434 499 36,000  Level Denver Center
09:48PM 41.9119 -108.0858 292° West 433 498 36,000  Level Salt Lake Center
09:49PM 41.9636 -108.2564 292° West 439 505 36,000  Level Salt Lake Center
09:50PM 42.0067 -108.4008 292° West 436 502 36,000  Level Salt Lake Center
09:51PM 42.0550 -108.5694 291° West 436 502 36,000  Level Salt Lake Center
09:52PM 42.0978 -108.7142 292° West 437 503 36,000  Level Salt Lake Center
09:53PM 42.1389 -108.8578 291° West 434 499 36,000  Level Salt Lake Center
09:54PM 42.1869 -109.0272 291° West 435 501 36,000  Level Salt Lake Center
09:55PM 42.2281 -109.1739 291° West 438 504 36,000  Level Salt Lake Center
09:56PM 42.2786 -109.3436 292° West 438 504 36,000  Level Salt Lake Center
09:58PM 42.3192 -109.4906 291° West 438 504 36,000  Level Salt Lake Center
09:59PM 42.3672 -109.6608 291° West 436 502 36,000  Level Salt Lake Center
10:00PM 42.4067 -109.8058 290° West 433 498 36,000  Level Salt Lake Center
10:01PM 42.4464 -109.9489 291° West 428 493 36,000  Level Salt Lake Center
10:02PM 42.4939 -110.1172 291° West 429 494 36,000  Level Salt Lake Center
10:03PM 42.5333 -110.2619 290° West 429 494 36,000  Level Salt Lake Center
10:04PM 42.5792 -110.4300 290° West 427 491 36,000  Level Salt Lake Center
10:05PM 42.6186 -110.5756 290° West 428 493 36,000  Level Salt Lake Center
10:06PM 42.6639 -110.7444 290° West 428 493 36,000  Level Salt Lake Center
10:07PM 42.7033 -110.8878 291° West 425 489 36,000  Level Salt Lake Center
10:08PM 42.7461 -111.0497 290° West 423 487 36,000  Level Salt Lake Center
10:09PM 42.7847 -111.1944 290° West 422 486 36,000  Level Salt Lake Center
10:10PM 42.8222 -111.3386 290° West 423 487 36,000  Level Salt Lake Center
10:11PM 42.8669 -111.5086 290° West 426 490 36,000  Level Salt Lake Center
10:12PM 42.9056 -111.6531 290° West 425 489 36,000  Level Salt Lake Center
10:13PM 42.9483 -111.8250 289° West 427 491 36,000  Level Salt Lake Center
10:14PM 42.9881 -111.9725 290° West 430 495 36,000  Level Salt Lake Center
10:15PM 43.0239 -112.1197 288° West 429 494 36,000  Level Salt Lake Center
10:16PM 43.0669 -112.2908 289° West 425 489 36,000  Level Salt Lake Center
10:17PM 43.1039 -112.4389 289° West 426 490 36,000  Level Salt Lake Center
10:18PM 43.1472 -112.6094 289° West 425 489 36,000  Level Salt Lake Center
10:19PM 43.1833 -112.7553 289° West 423 487 36,000  Level Salt Lake Center
10:20PM 43.2197 -112.9031 289° West 426 490 36,000  Level Salt Lake Center
10:21PM 43.2636 -113.0792 289° West 433 498 36,000  Level Salt Lake Center
10:22PM 43.3078 -113.2228 293° West 428 493 36,000  Level Salt Lake Center
10:23PM 43.3603 -113.3903 293° West 427 491 36,000  Level Salt Lake Center
10:24PM 43.4044 -113.5339 293° West 426 490 36,000  Level Salt Lake Center
10:25PM 43.4497 -113.6794 293° West 431 496 36,000  Level Salt Lake Center
10:26PM 43.5014 -113.8533 292° West 442 509 36,000  Level Salt Lake Center
10:27PM 43.5489 -114.0100 293° West 435 501 36,000  Level Salt Lake Center
10:28PM 43.5931 -114.1583 292° West 437 503 36,000  Level Salt Lake Center
10:29PM 43.6444 -114.3308 292° West 436 502 36,000  Level Salt Lake Center
10:30PM 43.6886 -114.4769 293° West 431 496 36,000  Level Salt Lake Center
10:31PM 43.7314 -114.6244 292° West 431 496 36,000  Level Salt Lake Center
10:32PM 43.7817 -114.7961 292° West 432 497 36,000  Level Salt Lake Center
10:33PM 43.8261 -114.9442 293° West 434 499 36,000  Level Salt Lake Center
10:34PM 43.8750 -115.1172 291° West 432 497 36,000  Level Salt Lake Center
10:35PM 43.9183 -115.2653 292° West 432 497 36,000  Level Salt Lake Center
10:36PM 43.9617 -115.4133 292° West 433 498 36,000  Level Salt Lake Center
10:37PM 44.0111 -115.5900 291° West 439 505 36,000  Level Salt Lake Center
10:39PM 44.0547 -115.7428 292° West 444 511 36,000  Level Salt Lake Center
10:40PM 44.1047 -115.9214 291° West 441 507 36,000  Level Salt Lake Center
10:41PM 44.1481 -116.0758 291° West 444 511 36,000  Level Salt Lake Center
10:42PM 44.1894 -116.2297 291° West 441 507 36,000  Level Salt Lake Center
10:43PM 44.2400 -116.4094 291° West 440 506 36,000  Level Salt Lake Center
10:44PM 44.2811 -116.5639 290° West 440 506 36,000  Level Salt Lake Center
10:45PM 44.3228 -116.7172 291° West 440 506 36,000  Level Salt Lake Center
10:46PM 44.3714 -116.8953 291° West 438 504 36,000  Level Salt Lake Center
10:47PM 44.4125 -117.0478 291° West 438 504 36,000  Level Salt Lake Center
10:48PM 44.4608 -117.2267 291° West 438 504 36,000  Level Salt Lake Center
10:49PM 44.5011 -117.3822 290° West 442 509 36,000  Level Salt Lake Center
10:50PM 44.5422 -117.5364 291° West 442 509 36,000  Level Salt Lake Center
10:51PM 44.5883 -117.7142 290° West 436 502 36,000  Level Salt Lake Center
10:52PM 44.6281 -117.8661 290° West 434 499 36,000  Level Salt Lake Center
10:52PM 44.6539 -117.9697 289° West 436 502 36,000  Level Seattle Center
10:53PM 44.6933 -118.1214 290° West 433 498 36,000  Level Seattle Center
10:54PM 44.7086 -118.1839 289° West 431 496 36,000  Level Salt Lake Center
10:55PM 44.7497 -118.3400 290° West 428 493 36,000  Level Salt Lake Center
10:55PM 44.7725 -118.4344 289° West 429 494 36,000  Level Seattle Center
10:56PM 44.8125 -118.5911 290° West 428 493 36,000  Level Seattle Center
10:58PM 44.8511 -118.7511 289° West 430 495 36,000  Level Seattle Center
10:59PM 44.8908 -118.9089 290° West 431 496 36,000  Level Seattle Center
11:00PM 44.9311 -119.0694 290° West 434 499 36,000  Level Seattle Center
11:01PM 44.9694 -119.2283 289° West 431 496 36,000  Level Seattle Center
11:02PM 45.0086 -119.3878 289° West 432 497 36,000  Level Seattle Center
11:03PM 45.0533 -119.5783 288° West 430 495 36,000  Level Seattle Center
11:04PM 45.0908 -119.7358 289° West 430 495 36,000  Level Seattle Center
11:05PM 45.1275 -119.8925 288° West 429 494 36,000 -720 Level Seattle Center
11:06PM 45.1644 -120.0492 289° West 430 495 34,600 -1,920 Descending Seattle Center
11:07PM 45.2011 -120.2089 288° West 431 496 32,200 -2,340 Descending Seattle Center
11:08PM 45.2375 -120.3686 288° West 431 496 29,900 -2,220 Descending Seattle Center
11:09PM 45.2753 -120.5247 289° West 424 488 27,800 -1,980 Descending Seattle Center
11:10PM 45.3100 -120.6725 289° West 406 467 26,000 -1,860 Descending Seattle Center
11:11PM 45.3428 -120.8189 288° West 395 455 24,100 -1,920 Descending Seattle Center
11:12PM 45.3747 -120.9611 288° West 383 441 22,100 -1,980 Descending Seattle Center
11:13PM 45.4119 -121.1247 288° West 368 423 20,100 -1,320 Descending Seattle Center
11:14PM 45.4350 -121.2486 285° West 335 386 19,500 -1,500 Descending Seattle Center
11:14PM 45.4439 -121.3108 282° West 314 361 17,900 -2,880 Descending Seattle Center
11:15PM 45.4506 -121.3750 278° West 323 372 16,600 -2,100 Descending Seattle Center
11:16PM 45.4667 -121.5067 280° West 335 386 14,800 -1,920 Descending Seattle Center
11:17PM 45.4811 -121.6358 279° West 332 382 12,800 -1,740 Descending Seattle Center
11:18PM 45.4981 -121.7822 279° West 312 359 11,200 -1,140 Descending Seattle Center
11:19PM 45.5106 -121.8700 282° West 297 342 10,500 -1,260 Descending Seattle Center
11:20PM 45.5064 -121.9750 267° West 272 313 8,800 -1,440 Descending Seattle Center
11:21PM 45.5086 -122.0792 272° West 266 306 7,700 -1,380 Descending Seattle Center
11:22PM 45.5108 -122.1653 272° West 233 268 6,100 -1,560 Descending Seattle Center
11:23PM 45.5111 -122.2511 270° West 219 252 4,600 -1,560 Descending Seattle Center
11:24PM 45.5122 -122.3328 271° West 211 243 3,000 -1,140 Descending Seattle Center
11:25PM 45.5200 -122.4058 279° West 197 227 2,400 -720 Descending Seattle Center
11:26PM 45.5447 -122.4656 301° West 181 208 1,600 -840 Descending Seattle Center